createdAt,value
2018-04-22T00:00:59.120Z,14.70
2018-04-22T00:03:27.394Z,14.47
2018-04-22T00:05:55.664Z,14.03
2018-04-22T00:08:24.682Z,15.07
2018-04-22T00:10:52.912Z,14.53
2018-04-22T00:13:21.223Z,15.03
2018-04-22T00:15:49.501Z,14.37
2018-04-22T00:18:17.732Z,14.73
2018-04-22T00:20:46.080Z,15.23
2018-04-22T00:23:14.376Z,14.53
2018-04-22T00:25:42.585Z,15.20
2018-04-22T00:28:11.582Z,15.90
2018-04-22T00:30:40.586Z,17.67
2018-04-22T00:33:08.812Z,16.13
2018-04-22T00:35:37.126Z,16.13
2018-04-22T00:38:05.374Z,16.47
2018-04-22T00:40:33.568Z,15.53
2018-04-22T00:43:03.211Z,17.07
2018-04-22T00:45:31.523Z,16.40
2018-04-22T00:47:59.752Z,17.73
2018-04-22T00:50:28.010Z,18.00
2018-04-22T00:52:56.248Z,17.47
2018-04-22T00:55:25.993Z,17.00
2018-04-22T00:57:54.248Z,18.43
2018-04-22T01:00:22.557Z,17.47
2018-04-22T01:02:50.867Z,17.47
2018-04-22T01:05:19.076Z,18.63
2018-04-22T01:07:47.289Z,18.50
2018-04-22T01:10:15.764Z,17.50
2018-04-22T01:12:43.972Z,16.20
2018-04-22T01:15:12.247Z,16.60
2018-04-22T01:17:40.475Z,16.33
2018-04-22T01:20:09.943Z,15.80
2018-04-22T01:22:38.171Z,16.47
2018-04-22T01:25:06.439Z,15.43
2018-04-22T01:27:34.712Z,16.57
2018-04-22T01:30:03.392Z,16.03
2018-04-22T01:32:32.388Z,16.43
2018-04-22T01:35:00.612Z,16.63
2018-04-22T01:37:28.837Z,18.17
2018-04-22T01:39:57.060Z,16.33
2018-04-22T01:42:25.289Z,17.97
2018-04-22T01:44:53.521Z,16.23
2018-04-22T01:47:21.738Z,18.17
2018-04-22T01:49:50.744Z,18.13
2018-04-22T01:52:18.956Z,18.27
2018-04-22T01:54:47.272Z,17.50
2018-04-22T01:57:16.272Z,19.10
2018-04-22T01:59:44.511Z,18.23
2018-04-22T02:02:12.724Z,19.00
2018-04-22T02:04:40.996Z,18.83
2018-04-22T02:07:09.216Z,18.07
2018-04-22T02:09:37.451Z,18.20
2018-04-22T02:12:05.664Z,19.57
2018-04-22T02:14:33.900Z,18.67
2018-04-22T02:17:02.115Z,18.63
2018-04-22T02:19:30.341Z,19.50
2018-04-22T02:21:58.556Z,18.77
2018-04-22T02:24:26.795Z,19.20
2018-04-22T02:26:55.064Z,19.37
2018-04-22T02:29:23.301Z,19.07
2018-04-22T02:31:51.516Z,19.50
2018-04-22T02:34:19.759Z,19.60
2018-04-22T02:36:47.969Z,19.73
2018-04-22T02:39:16.209Z,18.77
2018-04-22T02:41:44.515Z,19.37
2018-04-22T02:44:12.790Z,18.70
2018-04-22T02:46:41.005Z,18.80
2018-04-22T02:49:09.336Z,18.47
2018-04-22T02:51:37.549Z,20.20
2018-04-22T02:54:05.772Z,19.60
2018-04-22T02:56:34.763Z,19.20
2018-04-22T02:59:03.781Z,18.40
2018-04-22T03:01:32.056Z,19.60
2018-04-22T03:04:00.269Z,19.00
2018-04-22T03:06:28.501Z,19.20
2018-04-22T03:08:57.640Z,19.87
2018-04-22T03:11:25.873Z,18.20
2018-04-22T03:13:54.093Z,19.40
2018-04-22T03:16:22.605Z,19.53
2018-04-22T03:18:51.621Z,19.03
2018-04-22T03:21:19.843Z,19.50
2018-04-22T03:23:48.065Z,19.33
2018-04-22T03:26:16.292Z,19.13
2018-04-22T03:28:44.517Z,19.80
2018-04-22T03:31:12.789Z,20.87
2018-04-22T03:33:41.005Z,19.40
2018-04-22T03:36:09.245Z,18.93
2018-04-22T03:38:37.459Z,19.50
2018-04-22T03:41:05.688Z,19.30
2018-04-22T03:43:33.907Z,19.03
2018-04-22T03:46:02.239Z,19.30
2018-04-22T03:48:30.448Z,19.70
2018-04-22T03:50:58.697Z,19.87
2018-04-22T03:53:27.019Z,19.43
2018-04-22T03:55:55.338Z,19.70
2018-04-22T03:58:23.544Z,19.90
2018-04-22T04:00:51.776Z,21.13
2018-04-22T04:03:23.550Z,20.87
2018-04-22T04:05:51.920Z,21.40
2018-04-22T04:08:20.912Z,20.57
2018-04-22T04:10:49.150Z,20.93
2018-04-22T04:13:17.360Z,21.33
2018-04-22T04:15:46.357Z,22.30
2018-04-22T04:21:39.772Z,20.83
2018-04-22T04:27:21.398Z,21.27
2018-04-22T04:29:49.605Z,21.70
2018-04-22T04:32:18.604Z,21.40
2018-04-22T04:34:47.593Z,21.00
2018-04-22T04:37:16.600Z,21.57
2018-04-22T04:39:44.817Z,20.20
2018-04-22T04:42:13.063Z,21.07
2018-04-22T04:44:41.284Z,20.43
2018-04-22T04:47:09.504Z,21.77
2018-04-22T04:49:37.723Z,21.93
2018-04-22T04:52:06.055Z,20.83
2018-04-22T04:54:34.291Z,22.23
2018-04-22T04:57:02.517Z,21.03
2018-04-22T04:59:30.739Z,20.90
2018-04-22T05:01:59.059Z,20.10
2018-04-22T05:04:27.286Z,22.23
2018-04-22T05:06:55.511Z,21.20
2018-04-22T05:09:23.781Z,22.03
2018-04-22T05:11:52.161Z,21.17
2018-04-22T05:14:20.384Z,22.20
2018-04-22T05:16:48.712Z,21.90
2018-04-22T05:19:16.988Z,22.27
2018-04-22T05:21:45.268Z,21.87
2018-04-22T05:24:13.487Z,22.83
2018-04-22T05:26:41.820Z,21.00
2018-04-22T05:29:10.049Z,22.37
2018-04-22T05:31:38.271Z,21.77
2018-04-22T05:34:06.501Z,22.10
2018-04-22T05:36:34.753Z,21.60
2018-04-22T05:39:02.973Z,20.90
2018-04-22T05:41:31.979Z,20.80
2018-04-22T05:44:00.209Z,21.13
2018-04-22T05:46:28.448Z,21.13
2018-04-22T05:48:56.701Z,21.63
2018-04-22T05:51:24.977Z,21.17
2018-04-22T05:53:53.254Z,22.23
2018-04-22T05:56:21.488Z,23.33
2018-04-22T05:58:49.715Z,22.30
2018-04-22T06:01:17.936Z,21.03
2018-04-22T06:03:46.161Z,22.20
2018-04-22T06:06:14.450Z,22.10
2018-04-22T06:08:42.768Z,22.17
2018-04-22T06:11:10.988Z,22.67
2018-04-22T06:13:39.208Z,23.27
2018-04-22T06:16:07.458Z,22.43
2018-04-22T06:18:35.712Z,21.77
2018-04-22T06:21:03.961Z,22.43
2018-04-22T06:23:32.177Z,22.97
2018-04-22T06:26:00.536Z,22.20
2018-04-22T06:28:28.816Z,22.93
2018-04-22T06:30:57.041Z,24.60
2018-04-22T06:33:25.281Z,23.80
2018-04-22T06:35:53.498Z,23.60
2018-04-22T06:38:21.772Z,23.07
2018-04-22T06:40:49.993Z,23.87
2018-04-22T06:43:19.388Z,23.37
2018-04-22T06:45:47.617Z,24.97
2018-04-22T06:48:15.860Z,23.97
2018-04-22T06:50:44.102Z,24.53
2018-04-22T06:53:12.382Z,25.90
2018-04-22T06:55:40.607Z,24.80
2018-04-22T06:58:08.831Z,25.80
2018-04-22T07:00:37.080Z,24.20
2018-04-22T07:03:06.410Z,24.50
2018-04-22T07:05:35.372Z,25.83
2018-04-22T07:08:04.708Z,25.47
2018-04-22T07:10:32.828Z,23.70
2018-04-22T07:13:01.065Z,23.07
2018-04-22T07:15:29.320Z,22.80
2018-04-22T07:17:57.581Z,22.67
2018-04-22T07:20:26.565Z,22.43
2018-04-22T07:22:55.629Z,21.37
2018-04-22T07:25:23.854Z,21.13
2018-04-22T07:27:52.098Z,21.47
2018-04-22T07:30:20.308Z,21.10
2018-04-22T07:32:48.536Z,21.13
2018-04-22T07:35:16.752Z,19.53
2018-04-22T07:37:45.028Z,19.53
2018-04-22T07:40:13.564Z,20.43
2018-04-22T07:42:41.768Z,20.97
2018-04-22T07:45:10.746Z,20.00
2018-04-22T07:47:39.032Z,19.27
2018-04-22T07:50:08.175Z,18.57
2018-04-22T07:52:36.417Z,19.27
2018-04-22T07:55:04.636Z,18.10
2018-04-22T07:57:32.878Z,18.57
2018-04-22T08:00:01.208Z,17.23
2018-04-22T08:02:29.446Z,16.07
2018-04-22T08:04:57.721Z,15.33
2018-04-22T08:07:26.069Z,14.40
2018-04-22T08:09:54.289Z,15.30
2018-04-22T08:12:22.513Z,15.33
2018-04-22T08:14:51.501Z,16.30
2018-04-22T08:17:20.506Z,16.00
2018-04-22T08:19:49.484Z,15.63
2018-04-22T08:22:18.493Z,16.10
2018-04-22T08:24:46.764Z,14.83
2018-04-22T08:27:15.045Z,15.33
2018-04-22T08:29:43.381Z,15.17
2018-04-22T08:32:11.613Z,14.93
2018-04-22T08:34:39.840Z,14.87
2018-04-22T08:37:08.061Z,15.00
2018-04-22T08:39:36.426Z,15.67
2018-04-22T08:42:04.646Z,15.60
2018-04-22T08:44:32.880Z,15.03
2018-04-22T08:47:01.124Z,14.63
2018-04-22T08:49:30.139Z,14.40
2018-04-22T08:51:58.369Z,13.13
2018-04-22T08:54:26.582Z,13.27
2018-04-22T08:56:54.817Z,13.40
2018-04-22T08:59:23.025Z,12.77
2018-04-22T09:01:52.082Z,11.20
2018-04-22T09:04:20.418Z,11.53
2018-04-22T09:06:48.620Z,11.37
2018-04-22T09:09:16.849Z,12.37
2018-04-22T09:11:45.068Z,12.27
2018-04-22T09:14:13.300Z,10.80
2018-04-22T09:16:41.546Z,11.43
2018-04-22T09:19:09.809Z,11.40
2018-04-22T09:21:38.030Z,11.13
2018-04-22T09:24:06.295Z,12.03
2018-04-22T09:26:35.315Z,12.33
2018-04-22T09:29:03.549Z,12.13
2018-04-22T09:31:32.553Z,11.23
2018-04-22T09:34:01.537Z,11.57
2018-04-22T09:36:30.641Z,9.67
2018-04-22T09:38:59.640Z,11.20
2018-04-22T09:41:27.918Z,9.80
2018-04-22T09:43:56.093Z,12.33
2018-04-22T09:46:24.313Z,11.97
2018-04-22T09:48:52.541Z,11.07
2018-04-22T09:51:20.816Z,11.40
2018-04-22T09:53:49.051Z,11.13
2018-04-22T09:56:17.367Z,11.60
2018-04-22T09:58:45.599Z,16.60
2018-04-22T10:01:19.796Z,20.03
2018-04-22T10:03:48.041Z,18.70
2018-04-22T10:06:16.305Z,14.27
2018-04-22T10:08:44.486Z,11.73
2018-04-22T10:11:12.725Z,72.23
2018-04-22T10:13:40.962Z,65.63
2018-04-22T10:16:09.176Z,70.67
2018-04-22T10:18:37.470Z,58.43
2018-04-22T10:21:05.749Z,45.67
2018-04-22T10:23:34.095Z,28.10
2018-04-22T10:26:02.312Z,16.27
2018-04-22T10:28:30.561Z,10.30
2018-04-22T10:30:59.572Z,13.70
2018-04-22T10:33:27.844Z,21.00
2018-04-22T10:35:56.077Z,14.70
2018-04-22T10:38:24.295Z,10.43
2018-04-22T10:40:52.504Z,10.80
2018-04-22T10:43:20.741Z,13.07
2018-04-22T10:45:49.025Z,11.30
2018-04-22T10:48:17.229Z,9.73
2018-04-22T10:50:45.478Z,11.93
2018-04-22T10:53:13.729Z,10.03
2018-04-22T10:55:42.733Z,12.10
2018-04-22T10:58:10.948Z,12.57
2018-04-22T11:00:39.290Z,11.83
2018-04-22T11:03:07.924Z,9.53
2018-04-22T11:05:36.133Z,10.77
2018-04-22T11:08:05.128Z,10.20
2018-04-22T11:10:34.141Z,10.47
2018-04-22T11:13:02.400Z,11.27
2018-04-22T11:15:30.588Z,11.20
2018-04-22T11:17:58.841Z,11.43
2018-04-22T11:20:27.093Z,10.60
2018-04-22T11:22:55.489Z,10.70
2018-04-22T11:25:24.537Z,9.50
2018-04-22T11:27:52.806Z,9.63
2018-04-22T11:30:21.040Z,10.27
2018-04-22T11:32:50.016Z,10.93
2018-04-22T11:35:19.020Z,9.10
2018-04-22T11:37:48.000Z,9.07
2018-04-22T11:40:16.265Z,10.00
2018-04-22T11:42:44.472Z,9.17
2018-04-22T11:45:12.742Z,10.17
2018-04-22T11:47:41.736Z,8.77
2018-04-22T11:50:10.184Z,9.10
2018-04-22T11:52:38.388Z,9.40
2018-04-22T11:55:07.378Z,8.97
2018-04-22T11:57:36.439Z,8.60
2018-04-22T12:00:04.669Z,9.53
2018-04-22T12:02:32.876Z,8.10
2018-04-22T12:05:01.197Z,8.80
2018-04-22T12:07:29.497Z,7.60
2018-04-22T12:09:57.720Z,7.10
2018-04-22T12:12:26.035Z,9.20
2018-04-22T12:14:54.258Z,7.60
2018-04-22T12:17:22.462Z,8.90
2018-04-22T12:19:51.444Z,6.63
2018-04-22T12:22:19.656Z,7.50
2018-04-22T12:24:47.876Z,7.80
2018-04-22T12:27:16.089Z,7.53
2018-04-22T12:29:45.085Z,7.13
2018-04-22T12:32:13.296Z,6.80
2018-04-22T12:34:41.537Z,6.20
2018-04-22T12:37:09.783Z,6.80
2018-04-22T12:39:38.021Z,4.87
2018-04-22T12:42:06.250Z,4.00
2018-04-22T12:44:35.260Z,5.07
2018-04-22T12:47:03.492Z,4.00
2018-04-22T12:49:31.712Z,5.83
2018-04-22T12:51:59.940Z,5.67
2018-04-22T12:54:28.153Z,5.50
2018-04-22T12:56:56.398Z,53.60
2018-04-22T12:59:25.417Z,21.20
2018-04-22T13:01:53.652Z,57.77
2018-04-22T13:04:21.865Z,55.00
2018-04-22T13:06:50.145Z,12.80
2018-04-22T13:09:18.352Z,6.07
2018-04-22T13:11:46.608Z,5.23
2018-04-22T13:14:14.831Z,4.90
2018-04-22T13:16:43.150Z,4.67
2018-04-22T13:19:11.366Z,5.37
2018-04-22T13:21:39.586Z,4.47
2018-04-22T13:24:08.557Z,4.10
2018-04-22T13:26:37.561Z,4.60
2018-04-22T13:29:06.524Z,4.93
2018-04-22T13:31:34.816Z,4.33
2018-04-22T13:34:03.145Z,4.47
2018-04-22T13:36:31.424Z,4.57
2018-04-22T13:38:59.661Z,4.50
2018-04-22T13:41:27.941Z,4.60
2018-04-22T13:43:56.153Z,4.20
2018-04-22T13:46:24.372Z,4.05
2018-04-22T13:48:53.349Z,4.47
2018-04-22T13:51:21.557Z,4.57
2018-04-22T13:53:49.761Z,3.97
2018-04-22T13:56:17.980Z,4.20
2018-04-22T13:58:46.954Z,4.23
2018-04-22T14:01:15.182Z,4.25
2018-04-22T14:03:43.454Z,3.50
2018-04-22T14:06:11.652Z,4.20
2018-04-22T14:08:39.870Z,4.35
2018-04-22T14:11:08.879Z,4.22
2018-04-22T14:13:37.104Z,4.03
2018-04-22T14:16:05.324Z,3.90
2018-04-22T14:18:34.304Z,4.22
2018-04-22T14:21:03.330Z,4.12
2018-04-22T14:23:31.521Z,4.00
2018-04-22T14:25:59.753Z,4.12
2018-04-22T14:28:28.779Z,3.70
2018-04-22T14:30:56.991Z,4.40
2018-04-22T14:33:25.219Z,4.10
2018-04-22T14:35:53.417Z,4.28
2018-04-22T14:38:21.632Z,4.47
2018-04-22T14:40:50.642Z,4.10
2018-04-22T14:43:19.631Z,4.15
2018-04-22T14:46:00.418Z,3.83
2018-04-22T14:51:03.169Z,4.20
2018-04-22T14:53:31.389Z,5.22
2018-04-22T14:55:59.600Z,4.55
2018-04-22T14:58:27.927Z,4.57
2018-04-22T15:00:56.126Z,4.03
2018-04-22T15:03:24.343Z,4.18
2018-04-22T15:05:52.644Z,4.40
2018-04-22T15:08:20.878Z,3.83
2018-04-22T15:10:49.189Z,4.70
2018-04-22T15:13:18.200Z,4.60
2018-04-22T15:15:46.453Z,4.18
2018-04-22T15:18:15.468Z,3.60
2018-04-22T15:20:43.688Z,4.35
2018-04-22T15:23:12.168Z,4.03
2018-04-22T15:25:40.373Z,4.57
2018-04-22T15:28:09.394Z,5.62
2018-04-22T15:30:37.656Z,5.70
2018-04-22T15:33:05.952Z,6.93
2018-04-22T15:35:34.177Z,6.50
2018-04-22T15:38:02.436Z,7.62
2018-04-22T15:40:30.637Z,12.27
2018-04-22T15:42:59.676Z,11.27
2018-04-22T15:45:28.024Z,6.30
2018-04-22T15:47:56.249Z,4.95
2018-04-22T15:50:24.462Z,4.07
2018-04-22T15:52:53.560Z,4.72
2018-04-22T15:55:22.528Z,4.50
2018-04-22T15:57:50.835Z,5.93
2018-04-22T16:00:19.047Z,6.40
2018-04-22T16:02:47.298Z,6.68
2018-04-22T16:05:15.520Z,7.53
2018-04-22T16:07:43.828Z,10.25
2018-04-22T16:10:12.265Z,9.65
2018-04-22T16:12:40.581Z,7.15
2018-04-22T16:15:09.561Z,8.73
2018-04-22T16:17:38.576Z,81.22
2018-04-22T16:20:07.472Z,35.42
2018-04-22T16:22:35.742Z,101.15
2018-04-22T16:25:04.012Z,12.20
2018-04-22T16:27:33.304Z,39.47
2018-04-22T16:30:02.045Z,13.77
2018-04-22T16:32:30.265Z,11.95
2018-04-22T16:34:59.256Z,13.88
2018-04-22T16:37:28.272Z,14.13
2018-04-22T16:39:56.495Z,12.50
2018-04-22T16:42:24.707Z,14.35
2018-04-22T16:44:52.941Z,17.27
2018-04-22T16:47:21.154Z,10.85
2018-04-22T16:49:49.432Z,12.63
2018-04-22T16:52:17.644Z,13.07
2018-04-22T16:54:45.913Z,13.52
2018-04-22T16:57:14.155Z,14.05
2018-04-22T16:59:42.400Z,14.20
2018-04-22T17:02:10.800Z,13.18
2018-04-22T17:04:39.099Z,11.88
2018-04-22T17:07:07.497Z,13.37
2018-04-22T17:09:35.846Z,12.93
2018-04-22T17:12:04.058Z,8.93
2018-04-22T17:14:32.273Z,9.90
2018-04-22T17:17:01.336Z,8.20
2018-04-22T17:19:29.560Z,7.70
2018-04-22T17:24:42.594Z,8.43
2018-04-22T17:27:11.591Z,8.50
2018-04-22T17:29:40.576Z,9.57
2018-04-22T17:32:09.565Z,9.33
2018-04-22T17:34:38.560Z,9.97
2018-04-22T17:37:06.834Z,6.53
2018-04-22T17:39:35.829Z,7.10
2018-04-22T17:42:04.053Z,6.30
2018-04-22T17:44:32.363Z,5.87
2018-04-22T17:47:00.612Z,4.43
2018-04-22T17:49:28.830Z,5.60
2018-04-22T17:51:57.055Z,4.85
2018-04-22T17:54:25.264Z,5.13
2018-04-22T17:56:54.251Z,4.57
2018-04-22T17:59:23.273Z,4.97
2018-04-22T18:01:52.349Z,4.70
2018-04-22T18:04:21.347Z,4.57
2018-04-22T18:06:49.607Z,4.20
2018-04-22T18:09:17.848Z,5.07
2018-04-22T18:11:46.168Z,28.50
2018-04-22T18:14:14.440Z,30.80
2018-04-22T18:16:42.658Z,25.53
2018-04-22T18:19:10.888Z,22.20
2018-04-22T18:21:39.885Z,26.77
2018-04-22T18:24:09.000Z,10.43
2018-04-22T18:26:37.219Z,10.93
2018-04-22T18:29:05.437Z,8.80
2018-04-22T18:31:33.717Z,23.73
2018-04-22T18:34:02.221Z,20.40
2018-04-22T18:36:30.440Z,46.53
2018-04-22T18:38:59.476Z,32.00
2018-04-22T18:41:27.727Z,64.23
2018-04-22T18:43:56.736Z,34.67
2018-04-22T18:46:24.956Z,29.37
2018-04-22T18:48:53.291Z,17.87
2018-04-22T18:51:21.485Z,16.53
2018-04-22T18:53:49.722Z,11.53
2018-04-22T18:56:17.939Z,9.03
2018-04-22T18:58:46.160Z,7.23
2018-04-22T19:01:15.163Z,5.50
2018-04-22T19:03:44.149Z,5.60
2018-04-22T19:06:13.139Z,6.60
2018-04-22T19:08:42.213Z,4.83
2018-04-22T19:11:10.532Z,6.23
2018-04-22T19:13:38.756Z,6.13
2018-04-22T19:16:06.972Z,4.70
2018-04-22T19:18:35.539Z,4.83
2018-04-22T19:21:03.781Z,6.27
2018-04-22T19:23:32.039Z,8.23
2018-04-22T19:26:00.339Z,4.70
2018-04-22T19:28:28.553Z,4.50
2018-04-22T19:30:56.811Z,4.50
2018-04-22T19:33:25.811Z,4.60
2018-04-22T19:35:54.818Z,4.77
2018-04-22T19:38:23.804Z,7.80
2018-04-22T19:40:52.068Z,6.57
2018-04-22T19:43:22.257Z,14.80
2018-04-22T19:45:50.491Z,26.83
2018-04-22T19:48:18.748Z,28.57
2018-04-22T19:50:47.005Z,38.87
2018-04-22T19:53:16.012Z,31.30
2018-04-22T19:55:45.021Z,21.23
2018-04-22T19:58:13.229Z,15.20
2018-04-22T20:00:41.535Z,17.03
2018-04-22T20:03:09.924Z,17.67
2018-04-22T20:05:38.929Z,20.37
2018-04-22T20:08:07.190Z,21.50
2018-04-22T20:10:36.358Z,19.70
2018-04-22T20:13:04.674Z,11.00
2018-04-22T20:15:33.006Z,13.27
2018-04-22T20:18:01.226Z,9.27
2018-04-22T20:20:29.453Z,14.20
2018-04-22T20:22:57.687Z,19.33
2018-04-22T20:25:26.017Z,12.83
2018-04-22T20:27:54.224Z,10.47
2018-04-22T20:30:22.468Z,8.37
2018-04-22T20:32:50.679Z,19.07
2018-04-22T20:35:18.928Z,12.87
2018-04-22T20:37:47.177Z,18.40
2018-04-22T20:40:15.659Z,60.30
2018-04-22T20:42:43.969Z,48.40
2018-04-22T20:45:13.190Z,47.90
2018-04-22T20:47:41.450Z,42.23
2018-04-22T20:50:09.819Z,39.10
2018-04-22T20:52:38.908Z,60.10
2018-04-22T20:55:07.893Z,27.13
2018-04-22T20:57:36.906Z,20.97
2018-04-22T21:00:05.445Z,22.90
2018-04-22T21:02:33.695Z,10.10
2018-04-22T21:05:01.919Z,13.07
2018-04-22T21:07:31.045Z,8.63
2018-04-22T21:09:59.265Z,9.83
2018-04-22T21:12:27.577Z,6.83
2018-04-22T21:14:56.572Z,6.97
2018-04-22T21:17:25.555Z,6.07
2018-04-22T21:19:54.549Z,8.40
2018-04-22T21:22:23.562Z,5.90
2018-04-22T21:24:51.770Z,5.97
2018-04-22T21:27:19.985Z,4.70
2018-04-22T21:29:48.953Z,5.47
2018-04-22T21:32:17.280Z,5.43
2018-04-22T21:34:45.546Z,4.77
2018-04-22T21:37:13.791Z,5.00
2018-04-22T21:39:42.821Z,3.97
2018-04-22T21:42:11.033Z,4.07
2018-04-22T21:44:39.229Z,4.23
2018-04-22T21:47:07.441Z,4.00
2018-04-22T21:49:35.666Z,4.00
2018-04-22T21:52:03.972Z,4.13
2018-04-22T21:54:32.965Z,29.97
2018-04-22T21:57:01.960Z,42.70
2018-04-22T21:59:30.949Z,49.77
2018-04-22T22:01:59.957Z,102.33
2018-04-22T22:04:28.298Z,51.23
2018-04-22T22:06:56.461Z,41.73
2018-04-22T22:09:24.737Z,45.80
2018-04-22T22:11:53.721Z,11.13
2018-04-22T22:14:21.944Z,24.00
2018-04-22T22:16:50.217Z,9.20
2018-04-22T22:19:19.204Z,12.00
2018-04-22T22:21:48.304Z,12.23
2018-04-22T22:24:16.581Z,11.10
2018-04-22T22:26:44.860Z,7.90
2018-04-22T22:29:13.136Z,7.90
2018-04-22T22:31:41.368Z,8.13
2018-04-22T22:34:09.799Z,6.10
2018-04-22T22:36:38.033Z,6.13
2018-04-22T22:39:06.328Z,6.10
2018-04-22T22:41:38.883Z,5.23
2018-04-22T22:44:07.085Z,5.30
2018-04-22T22:46:36.134Z,6.27
2018-04-22T22:49:04.339Z,4.23
2018-04-22T22:51:33.335Z,4.47
2018-04-22T22:54:01.553Z,3.80
2018-04-22T22:56:29.773Z,4.10
2018-04-22T22:58:58.743Z,4.00
2018-04-22T23:01:27.063Z,4.80
2018-04-22T23:03:55.346Z,3.60
2018-04-22T23:06:24.300Z,4.27
2018-04-22T23:08:52.537Z,3.57
2018-04-22T23:11:20.734Z,3.80
2018-04-22T23:13:48.949Z,3.47
2018-04-22T23:16:17.228Z,6.97
2018-04-22T23:18:45.498Z,21.97
2018-04-22T23:21:13.785Z,77.20
2018-04-22T23:23:42.052Z,55.73
2018-04-22T23:26:10.324Z,35.37
2018-04-22T23:28:38.562Z,28.70
2018-04-22T23:31:06.880Z,14.00
2018-04-22T23:33:35.117Z,6.37
2018-04-22T23:36:04.109Z,7.60
2018-04-22T23:38:32.456Z,6.93
2018-04-22T23:41:00.684Z,5.30
2018-04-22T23:43:29.687Z,5.97
2018-04-22T23:45:58.654Z,6.00
2018-04-22T23:48:26.953Z,4.93
2018-04-22T23:50:55.955Z,6.67
2018-04-22T23:53:24.180Z,6.00
2018-04-22T23:55:52.400Z,4.37
2018-04-22T23:58:20.612Z,4.93
